»·PEaware :: N7342J KDAG-KTOA

N7342J :: KDAG-KTOA

FLIGHT INFORMATION

Flight Status: Arrived
Operator: Privately registered:
United States
More flights under this callsign
Pilot: Alex W. (8684)
Aircraft: BEECH AIRCRAFT A90-E90 KING AIR
(BE9L)
More flights by this aircraft type
Origin: KDAG Barstow-Daggett
United States
Destination: KTOA Zamperini
United States
More flights between these airports :: More routes between these airports
Route: +DAG1 DAG BULGY KAYOH7
File this flight plan on PilotEdge
Remarks:
Altitude:
(Current/Filed)
14,000ft
Speed:
(Current/Filed)
210kts
Departed: 12-Nov-17 12:33 PM
Arrived: 12-Nov-17 01:30 PM
Distance/Time
Traveled:
100nm/0:57
Distance/Time
To Go:
Arrived

Flight Plot

Page will automatically refresh every two minutes.

Flight plan parsing failed; only flown route is shown


Map Options




Map Legend


Flown Route
Filed Route
Departure Airport
Arrival Airport
Navaid (VOR, NDB)
Fix

Horizontal Profiles

Position Reports

Time Latitude Longitude Heading Altitude Ground
Speed
12-Nov-17 12:18 34.859214 -116.788277 177 1928ft 2kts
12-Nov-17 12:19 34.857622 -116.787122 264 1928ft 23kts
12-Nov-17 12:20 34.853218 -116.792939 232 1928ft 24kts
12-Nov-17 12:21 34.852446 -116.793824 131 1928ft 0kts
12-Nov-17 12:22 34.852446 -116.793824 131 1928ft 0kts
12-Nov-17 12:23 34.852446 -116.793824 131 1928ft 0kts
12-Nov-17 12:24 34.852446 -116.793824 131 1928ft 0kts
12-Nov-17 12:25 34.852446 -116.793824 131 1928ft 0kts
12-Nov-17 12:26 34.852446 -116.793824 131 1928ft 0kts
12-Nov-17 12:27 34.852446 -116.793824 131 1928ft 0kts
12-Nov-17 12:28 34.852446 -116.793824 131 1928ft 0kts
12-Nov-17 12:29 34.852446 -116.793824 131 1928ft 0kts
12-Nov-17 12:30 34.852446 -116.793824 131 1928ft 0kts
12-Nov-17 12:31 34.852446 -116.793824 131 1928ft 0kts
12-Nov-17 12:32 34.852446 -116.793824 131 1928ft 0kts
12-Nov-17 12:33 34.852446 -116.793824 131 1928ft 0kts
12-Nov-17 12:34 34.852446 -116.793824 131 1928ft 0kts
12-Nov-17 12:35 34.852446 -116.793824 131 1928ft 0kts
12-Nov-17 12:36 34.852446 -116.793824 131 1928ft 0kts
12-Nov-17 12:37 34.852446 -116.793824 131 1928ft 0kts
12-Nov-17 12:38 34.854547 -116.788870 50 1928ft 98kts
12-Nov-17 12:39 34.876647 -116.755165 56 3525ft 131kts
12-Nov-17 12:40 34.895185 -116.717251 56 5516ft 130kts
12-Nov-17 12:41 34.910167 -116.686552 56 6965ft 138kts
12-Nov-17 12:42 34.941520 -116.621864 57 7006ft 221kts
12-Nov-17 12:43 34.972492 -116.554177 60 7005ft 233kts
12-Nov-17 12:44 35.002636 -116.483930 60 7009ft 234kts
12-Nov-17 12:45 35.027544 -116.425518 59 7200ft 226kts
12-Nov-17 12:46 35.054456 -116.360764 64 8178ft 208kts
12-Nov-17 12:47 35.020671 -116.346885 254 9317ft 174kts
12-Nov-17 12:48 35.006332 -116.402567 253 10306ft 171kts
12-Nov-17 12:49 34.994874 -116.448350 252 11131ft 167kts
12-Nov-17 12:50 34.981347 -116.501953 252 12120ft 164kts
12-Nov-17 12:51 34.968139 -116.554345 251 13113ft 159kts
12-Nov-17 12:52 34.944864 -116.591995 177 13994ft 172kts
12-Nov-17 12:53 34.893101 -116.587763 193 14004ft 195kts
12-Nov-17 12:54 34.837738 -116.596005 191 13999ft 205kts
12-Nov-17 12:55 34.780838 -116.603920 191 13998ft 207kts
12-Nov-17 12:56 34.723744 -116.611881 191 13998ft 207kts
12-Nov-17 12:57 34.666672 -116.620643 206 13984ft 203kts
12-Nov-17 12:58 34.630668 -116.670694 231 14001ft 199kts
12-Nov-17 12:59 34.593601 -116.720653 227 14001ft 200kts
12-Nov-17 13:00 34.554972 -116.769234 227 14001ft 200kts
12-Nov-17 13:01 34.516630 -116.817495 227 14078ft 197kts
12-Nov-17 13:02 34.478250 -116.865780 227 14064ft 199kts
12-Nov-17 13:03 34.439796 -116.914109 227 14045ft 200kts
12-Nov-17 13:04 34.401555 -116.962099 227 14040ft 199kts
12-Nov-17 13:05 34.362705 -117.008531 217 14034ft 199kts
12-Nov-17 13:06 34.323067 -117.053673 222 14015ft 198kts
12-Nov-17 13:07 34.280092 -117.099800 222 13069ft 214kts
12-Nov-17 13:08 34.227233 -117.117837 184 13026ft 203kts
12-Nov-17 13:09 34.174702 -117.129945 193 13025ft 196kts
12-Nov-17 13:10 34.121739 -117.133580 191 13029ft 195kts
12-Nov-17 13:11 34.069402 -117.142679 191 13025ft 195kts
12-Nov-17 13:12 34.016145 -117.150445 191 13024ft 195kts
12-Nov-17 13:13 33.962984 -117.158190 191 13024ft 195kts
12-Nov-17 13:14 33.922430 -117.188588 243 13028ft 189kts
12-Nov-17 13:15 33.896936 -117.247216 240 12292ft 213kts
12-Nov-17 13:16 33.867611 -117.310332 240 11268ft 225kts
12-Nov-17 13:17 33.837041 -117.375510 241 10097ft 231kts
12-Nov-17 13:18 33.805288 -117.443023 241 8895ft 234kts
12-Nov-17 13:19 33.780582 -117.513651 268 8030ft 223kts
12-Nov-17 13:20 33.780390 -117.584911 271 8033ft 208kts
12-Nov-17 13:21 33.764717 -117.654567 252 7186ft 230kts
12-Nov-17 13:22 33.744524 -117.724812 252 6062ft 218kts
12-Nov-17 13:23 33.725896 -117.791825 252 6036ft 214kts
12-Nov-17 13:24 33.707665 -117.859697 252 6036ft 217kts
12-Nov-17 13:25 33.689063 -117.928718 252 4979ft 219kts
12-Nov-17 13:26 33.670966 -117.996299 252 3667ft 210kts
12-Nov-17 13:27 33.653883 -118.060518 252 3029ft 196kts
12-Nov-17 13:28 33.637149 -118.122079 252 3026ft 193kts
12-Nov-17 13:29 33.640243 -118.177949 343 3022ft 188kts
12-Nov-17 13:30 33.692114 -118.187907 351 3027ft 190kts
12-Nov-17 13:31 33.733453 -118.228299 314 2310ft 190kts
12-Nov-17 13:32 33.759420 -118.272062 306 1269ft 138kts
12-Nov-17 13:33 33.781393 -118.304593 305 1036ft 133kts
12-Nov-17 13:34 33.801824 -118.336296 308 109ft 97kts
12-Nov-17 13:35 33.805867 -118.343792 289 106ft 10kts
12-Nov-17 13:36 33.802256 -118.342304 168 106ft 16kts
12-Nov-17 13:37 33.801914 -118.341858 38 106ft 0kts
12-Nov-17 13:38 33.801914 -118.341858 38 106ft 0kts
12-Nov-17 13:39 33.801914 -118.341858 38 106ft 0kts
12-Nov-17 13:40 33.801914 -118.341858 38 106ft 0kts
12-Nov-17 13:41 33.801914 -118.341858 38 106ft 0kts
12-Nov-17 13:42 33.801914 -118.341858 38 106ft 0kts
12-Nov-17 13:43 33.801914 -118.341858 38 106ft 0kts
12-Nov-17 13:44 33.801914 -118.341858 38 106ft 0kts
12-Nov-17 13:45 33.801914 -118.341858 38 106ft 0kts
12-Nov-17 13:46 33.801914 -118.341858 38 106ft 0kts
12-Nov-17 13:47 33.801914 -118.341858 38 106ft 0kts
12-Nov-17 13:48 33.801914 -118.341858 38 106ft 0kts
12-Nov-17 13:49 33.801914 -118.341858 38 106ft 0kts
12-Nov-17 13:50 33.801914 -118.341858 38 106ft 0kts

Navigation Log

Ident Type
Flight plan parsing failed, navigation log unavailable